Time;durP1;ratioP1;P1;durP2;ratioP2;P2;SDS_P1;SDS_P2;PMS_P1;PMS_P2;Temp;Humidity;BMP_temperature;BMP_pressure;BME280_temperature;BME280_humidity;BME280_pressure;Samples;Min_cycle;Max_cycle;Signal;HPM_P1;HPM_P2
2021/12/28 00:02:20;;;;;;;15.90;12.05;;;9.80;99.90;;;;;;5030872;28;20048;-72
2021/12/28 00:05:26;;;;;;;16.70;11.95;;;9.80;99.90;;;;;;5030834;28;20491;-72
2021/12/28 00:08:31;;;;;;;11.20;7.85;;;9.80;99.90;;;;;;5029539;28;20044;-72
2021/12/28 00:11:35;;;;;;;12.25;8.65;;;9.70;99.90;;;;;;5030923;28;20056;-72
2021/12/28 00:14:48;;;;;;;11.18;7.28;;;9.70;99.90;;;;;;5031130;28;20060;-72
2021/12/28 00:18:03;;;;;;;14.05;7.22;;;9.70;99.90;;;;;;5030304;28;20044;-72
2021/12/28 00:21:08;;;;;;;11.10;7.20;;;9.70;99.90;;;;;;5030468;28;20048;-72
2021/12/28 00:24:12;;;;;;;13.57;9.02;;;9.70;99.90;;;;;;5030089;28;20060;-72
2021/12/28 00:27:16;;;;;;;11.68;7.28;;;9.70;99.90;;;;;;5029533;28;20432;-72
2021/12/28 00:30:21;;;;;;;9.80;6.82;;;9.70;99.90;;;;;;5028863;28;20045;-72
2021/12/28 00:33:26;;;;;;;10.35;6.88;;;9.80;99.90;;;;;;5030324;28;20045;-72
2021/12/28 00:36:30;;;;;;;8.98;5.80;;;9.70;99.90;;;;;;5030081;28;20032;-72
2021/12/28 00:39:34;;;;;;;20.55;12.45;;;9.70;99.90;;;;;;5029195;28;20053;-72
2021/12/28 00:42:40;;;;;;;16.02;10.07;;;9.70;99.90;;;;;;5029401;28;20417;-72
2021/12/28 00:45:44;;;;;;;14.63;9.70;;;9.70;99.90;;;;;;5030106;28;20314;-72
2021/12/28 00:48:47;;;;;;;16.13;9.63;;;9.70;99.90;;;;;;5029704;28;20235;-72
2021/12/28 00:51:52;;;;;;;13.55;7.00;;;9.70;99.90;;;;;;5030195;28;20049;-72
2021/12/28 00:54:56;;;;;;;14.85;8.27;;;9.70;99.90;;;;;;5030365;28;20091;-72
2021/12/28 00:58:00;;;;;;;17.95;10.88;;;9.70;99.90;;;;;;5029936;28;20061;-72
2021/12/28 01:01:05;;;;;;;22.38;9.93;;;9.70;99.90;;;;;;5029701;28;20120;-72
2021/12/28 01:04:10;;;;;;;15.55;8.18;;;9.80;99.90;;;;;;5030169;28;20397;-72
2021/12/28 01:07:14;;;;;;;11.85;7.53;;;9.70;99.90;;;;;;5029339;28;20387;-72
2021/12/28 01:10:24;;;;;;;10.45;6.70;;;9.80;99.90;;;;;;5029300;28;20044;-72
2021/12/28 01:13:28;;;;;;;13.77;7.07;;;9.80;99.90;;;;;;5030029;28;20051;-72
2021/12/28 01:16:32;;;;;;;10.13;6.45;;;9.80;99.90;;;;;;5029833;28;20120;-72
2021/12/28 01:19:37;;;;;;;18.02;9.68;;;9.70;99.90;;;;;;5029305;28;20052;-72
2021/12/28 01:22:43;;;;;;;13.80;7.75;;;9.70;99.90;;;;;;5030021;28;20041;-72
2021/12/28 01:25:47;;;;;;;11.98;7.35;;;9.80;99.90;;;;;;5029775;28;20416;-72
2021/12/28 01:28:51;;;;;;;12.75;7.90;;;9.80;99.90;;;;;;5029435;28;20048;-72
2021/12/28 01:31:56;;;;;;;9.93;5.38;;;9.80;99.90;;;;;;5029798;28;20109;-72
2021/12/28 01:35:00;;;;;;;7.97;5.45;;;9.80;99.90;;;;;;5029578;28;20476;-72
2021/12/28 01:38:06;;;;;;;8.30;5.38;;;9.70;99.90;;;;;;5029512;28;20045;-72
2021/12/28 01:41:10;;;;;;;11.20;6.03;;;9.70;99.90;;;;;;5029881;28;20041;-72
2021/12/28 01:44:14;;;;;;;11.20;4.60;;;9.60;99.90;;;;;;5030053;28;20376;-72
2021/12/28 01:47:19;;;;;;;8.68;5.13;;;9.60;99.90;;;;;;5029709;28;20044;-72
2021/12/28 01:50:23;;;;;;;1182.38;74.63;;;9.40;99.90;;;;;;5029150;28;20610;-72
2021/12/28 01:53:29;;;;;;;37.65;12.77;;;9.20;99.90;;;;;;5028989;28;20057;-72
2021/12/28 01:56:40;;;;;;;215.45;22.75;;;9.20;99.90;;;;;;5029624;28;20416;-72
2021/12/28 01:59:45;;;;;;;207.90;22.77;;;9.20;99.90;;;;;;5028689;28;20499;-73
2021/12/28 02:02:49;;;;;;;187.40;19.08;;;9.30;99.90;;;;;;5029544;28;20045;-73
2021/12/28 02:05:53;;;;;;;76.43;14.60;;;9.30;99.90;;;;;;5029177;28;20044;-72
2021/12/28 02:08:57;;;;;;;16.70;10.50;;;9.30;99.90;;;;;;5028983;28;20056;-72
2021/12/28 02:12:01;;;;;;;42.63;14.20;;;9.40;99.90;;;;;;5029228;28;20053;-72
2021/12/28 02:15:12;;;;;;;85.75;15.07;;;9.50;99.90;;;;;;5029498;28;20487;-73
2021/12/28 02:18:19;;;;;;;94.80;17.30;;;9.50;99.90;;;;;;5028822;28;20389;-73
2021/12/28 02:21:25;;;;;;;69.55;16.63;;;9.50;99.90;;;;;;5032408;28;20048;-72
2021/12/28 02:24:30;;;;;;;26.13;14.60;;;9.60;99.90;;;;;;5032893;28;20068;-72
2021/12/28 02:27:34;;;;;;;25.05;13.85;;;9.50;99.90;;;;;;5032852;28;20041;-72
2021/12/28 02:30:41;;;;;;;22.05;11.50;;;9.60;99.90;;;;;;5032671;28;20044;-72
2021/12/28 02:33:49;;;;;;;19.00;11.48;;;9.60;99.90;;;;;;5032622;28;20052;-72
2021/12/28 02:36:53;;;;;;;16.27;9.35;;;9.50;99.90;;;;;;5032524;28;20056;-72
2021/12/28 02:39:58;;;;;;;22.20;9.50;;;9.60;99.90;;;;;;5032001;28;20388;-72
2021/12/28 02:43:04;;;;;;;15.50;9.48;;;9.60;99.90;;;;;;5032182;28;20037;-72
2021/12/28 02:46:09;;;;;;;17.95;10.00;;;9.60;99.90;;;;;;5031548;28;20045;-72
2021/12/28 02:49:15;;;;;;;13.38;9.07;;;9.70;99.90;;;;;;5032100;28;20495;-73
2021/12/28 02:52:19;;;;;;;14.75;9.25;;;9.70;99.90;;;;;;5032206;28;20045;-72
2021/12/28 02:55:27;;;;;;;13.57;9.65;;;9.70;99.90;;;;;;5032318;28;20503;-72
2021/12/28 02:58:37;;;;;;;14.70;10.82;;;9.70;99.90;;;;;;5031821;28;20045;-72
2021/12/28 03:01:41;;;;;;;15.73;10.13;;;9.80;99.90;;;;;;5032216;28;20056;-73
2021/12/28 03:04:45;;;;;;;16.25;10.57;;;9.80;99.90;;;;;;5032510;28;20393;-72
2021/12/28 03:07:49;;;;;;;19.63;12.57;;;9.80;99.90;;;;;;5032092;28;20048;-72
2021/12/28 03:10:54;;;;;;;19.52;11.73;;;9.70;99.90;;;;;;5032321;28;20049;-72
2021/12/28 03:14:00;;;;;;;20.30;11.85;;;9.70;99.90;;;;;;5032556;28;20044;-72
2021/12/28 03:17:06;;;;;;;17.75;11.30;;;9.70;99.90;;;;;;5032227;28;20056;-72
2021/12/28 03:20:14;;;;;;;15.13;9.52;;;9.70;99.90;;;;;;5031481;28;20043;-72
2021/12/28 03:23:21;;;;;;;13.02;8.25;;;9.60;99.90;;;;;;5030960;28;20048;-72
2021/12/28 03:26:26;;;;;;;10.63;7.03;;;9.60;99.90;;;;;;5032075;28;20049;-72
2021/12/28 03:29:30;;;;;;;10.90;6.38;;;9.60;99.90;;;;;;5031557;28;20056;-72
2021/12/28 03:32:34;;;;;;;7.18;4.13;;;9.60;99.90;;;;;;5031456;28;20400;-72
2021/12/28 03:35:38;;;;;;;5.18;3.85;;;9.60;99.90;;;;;;5031422;28;20045;-72
2021/12/28 03:38:44;;;;;;;4.30;2.47;;;9.60;99.90;;;;;;5031392;28;20489;-72
2021/12/28 03:41:48;;;;;;;5.38;2.80;;;9.70;99.90;;;;;;5031100;28;20049;-72
2021/12/28 03:44:52;;;;;;;4.70;2.45;;;9.70;99.90;;;;;;5031405;28;20026;-72
2021/12/28 03:47:57;;;;;;;4.28;2.10;;;9.70;99.90;;;;;;5031238;28;20472;-72
2021/12/28 03:51:01;;;;;;;536.75;31.10;;;9.70;99.90;;;;;;5031132;28;20034;-72
2021/12/28 03:54:05;;;;;;;670.08;44.10;;;9.50;99.90;;;;;;5031064;28;20044;-72
2021/12/28 03:57:10;;;;;;;31.70;11.55;;;9.40;99.90;;;;;;5031085;28;20052;-72
2021/12/28 04:00:17;;;;;;;16.65;10.23;;;9.40;99.90;;;;;;5030394;28;20078;-72
2021/12/28 04:03:21;;;;;;;39.42;12.65;;;9.50;99.90;;;;;;5030952;28;20048;-72
2021/12/28 04:06:25;;;;;;;16.10;10.77;;;9.40;99.90;;;;;;5030999;28;20037;-72
2021/12/28 04:12:52;;;;;;;;;;;9.50;99.90;;;;;;5030904;28;20044;-72
2021/12/28 04:15:56;;;;;;;163.35;22.10;;;9.50;99.90;;;;;;5030913;28;19920;-72
2021/12/28 04:19:01;;;;;;;265.25;23.70;;;9.50;99.90;;;;;;5030152;28;20045;-72
2021/12/28 04:22:06;;;;;;;685.00;44.58;;;9.50;99.90;;;;;;5030681;28;20052;-72
2021/12/28 04:25:14;;;;;;;1289.95;77.80;;;9.50;99.90;;;;;;5030667;28;20057;-73
2021/12/28 04:28:19;;;;;;;992.15;63.17;;;9.40;99.90;;;;;;5029916;28;20041;-72
2021/12/28 04:31:23;;;;;;;1104.13;67.88;;;9.40;99.90;;;;;;5030823;28;20389;-72
2021/12/28 04:34:28;;;;;;;379.33;28.05;;;9.40;99.90;;;;;;5030444;28;20057;-72
2021/12/28 04:37:32;;;;;;;515.97;40.03;;;9.40;99.90;;;;;;5030830;28;20045;-72
2021/12/28 04:40:37;;;;;;;339.15;26.90;;;9.40;99.90;;;;;;5030421;28;20064;-72
2021/12/28 04:43:42;;;;;;;258.27;25.08;;;9.40;99.90;;;;;;5029775;28;20487;-72
2021/12/28 04:46:46;;;;;;;76.40;15.98;;;9.50;99.90;;;;;;5030349;28;20052;-72
2021/12/28 04:49:50;;;;;;;369.88;29.17;;;9.50;99.90;;;;;;5029944;28;20439;-72
2021/12/28 04:52:56;;;;;;;147.27;19.08;;;9.50;99.90;;;;;;5029996;28;20049;-72
2021/12/28 04:56:00;;;;;;;127.50;17.20;;;9.60;99.90;;;;;;5030106;28;20068;-72
2021/12/28 04:59:04;;;;;;;45.33;13.98;;;9.60;99.90;;;;;;5028625;28;20041;-72
2021/12/28 05:02:09;;;;;;;75.38;14.40;;;9.70;99.90;;;;;;5029915;28;20045;-72
2021/12/28 05:05:13;;;;;;;301.67;19.80;;;9.60;99.90;;;;;;5030048;28;20048;-72
2021/12/28 05:08:19;;;;;;;47.45;13.75;;;9.60;99.90;;;;;;5029700;28;20064;-72
2021/12/28 05:11:23;;;;;;;151.23;15.57;;;9.60;99.90;;;;;;5029940;28;20052;-72
2021/12/28 05:14:27;;;;;;;62.70;12.15;;;9.60;99.90;;;;;;5029748;28;20037;-72
2021/12/28 05:17:31;;;;;;;104.57;14.30;;;9.60;99.90;;;;;;5029998;28;20045;-72
2021/12/28 05:20:35;;;;;;;44.80;12.32;;;9.60;99.90;;;;;;5029897;28;20036;-72
2021/12/28 05:23:40;;;;;;;44.17;14.15;;;9.60;99.90;;;;;;5029461;28;20044;-73
2021/12/28 05:26:44;;;;;;;31.83;12.50;;;9.60;99.90;;;;;;5029909;28;20048;-72
2021/12/28 05:29:49;;;;;;;50.65;12.75;;;9.60;99.90;;;;;;5029486;28;20056;-73
2021/12/28 05:32:53;;;;;;;32.38;13.68;;;9.60;99.90;;;;;;5029584;28;20423;-72
2021/12/28 05:35:57;;;;;;;51.33;14.32;;;9.60;99.90;;;;;;5030252;28;20056;-71
2021/12/28 05:39:02;;;;;;;23.75;11.63;;;9.60;99.90;;;;;;5029597;28;20048;-72
2021/12/28 05:42:07;;;;;;;21.25;11.13;;;9.60;99.90;;;;;;5030026;28;20044;-72
2021/12/28 05:45:13;;;;;;;29.20;10.98;;;9.60;99.90;;;;;;5028624;28;20040;-72
2021/12/28 05:48:18;;;;;;;18.17;9.40;;;9.50;99.90;;;;;;5028910;28;20491;-72
2021/12/28 05:51:22;;;;;;;17.92;8.38;;;9.50;99.90;;;;;;5029811;28;20021;-72
2021/12/28 05:54:27;;;;;;;10.40;5.50;;;9.50;99.90;;;;;;5031785;28;20056;-72
2021/12/28 05:57:31;;;;;;;8.82;4.80;;;9.50;99.90;;;;;;5033491;28;20064;-72
2021/12/28 06:00:35;;;;;;;6.47;3.83;;;9.50;99.90;;;;;;5033000;28;20037;-72
2021/12/28 06:03:39;;;;;;;6.32;2.97;;;9.50;99.90;;;;;;5033413;28;20045;-72
2021/12/28 06:06:43;;;;;;;3.55;2.22;;;9.60;99.90;;;;;;5033438;28;20045;-72
2021/12/28 06:09:47;;;;;;;6.10;2.20;;;9.60;99.90;;;;;;5033174;28;20041;-73
2021/12/28 06:12:51;;;;;;;3.92;2.58;;;9.60;99.90;;;;;;5033478;28;20034;-72
2021/12/28 06:15:55;;;;;;;6.45;2.70;;;9.70;99.90;;;;;;5033408;28;20049;-73
2021/12/28 06:18:59;;;;;;;6.30;2.78;;;9.60;99.90;;;;;;5032852;28;20369;-72
2021/12/28 06:22:04;;;;;;;7.00;3.08;;;9.70;99.90;;;;;;5033319;28;20037;-72
2021/12/28 06:25:08;;;;;;;4.97;2.15;;;9.80;99.90;;;;;;5033061;28;20042;-72
2021/12/28 06:28:12;;;;;;;4.63;2.10;;;9.70;99.90;;;;;;5032826;28;20452;-72
2021/12/28 06:31:17;;;;;;;3.17;2.13;;;9.70;99.90;;;;;;5032863;28;20468;-72
2021/12/28 06:34:21;;;;;;;3.65;1.92;;;9.70;99.90;;;;;;5032923;28;20041;-72
2021/12/28 06:37:25;;;;;;;7.50;2.33;;;9.70;99.90;;;;;;5033102;28;20041;-72
2021/12/28 06:40:30;;;;;;;4.13;2.38;;;9.70;99.90;;;;;;5032587;28;20048;-72
2021/12/28 06:43:34;;;;;;;4.43;2.30;;;9.70;99.90;;;;;;5032972;28;20042;-72
2021/12/28 06:46:39;;;;;;;4.82;2.60;;;9.70;99.90;;;;;;5032860;28;20469;-73
2021/12/28 06:49:44;;;;;;;4.28;2.65;;;9.80;99.90;;;;;;5031616;28;20358;-72
2021/12/28 06:52:50;;;;;;;4.43;2.78;;;9.70;99.90;;;;;;5032631;28;20053;-73
2021/12/28 06:55:53;;;;;;;4.90;3.22;;;9.70;99.90;;;;;;5032822;28;20041;-73
2021/12/28 06:58:58;;;;;;;4.25;2.97;;;9.70;99.90;;;;;;5031967;28;20296;-72
2021/12/28 07:02:04;;;;;;;5.70;3.10;;;9.70;99.90;;;;;;5032722;28;20038;-72
2021/12/28 07:05:11;;;;;;;4.88;2.90;;;9.70;99.90;;;;;;5032248;28;20354;-72
2021/12/28 07:08:16;;;;;;;7.97;2.97;;;9.80;99.90;;;;;;5031952;28;20033;-72
2021/12/28 07:11:20;;;;;;;4.60;3.15;;;9.70;99.90;;;;;;5032561;28;20037;-72
2021/12/28 07:14:24;;;;;;;5.38;3.20;;;9.70;99.90;;;;;;5032275;28;20041;-72
2021/12/28 07:17:28;;;;;;;6.80;3.72;;;9.80;99.90;;;;;;5032316;28;20045;-72
2021/12/28 07:20:32;;;;;;;12.40;4.45;;;9.90;99.90;;;;;;5031856;28;20033;-73
2021/12/28 07:23:36;;;;;;;6.43;4.05;;;9.90;99.90;;;;;;5031611;28;20061;-72
2021/12/28 07:26:40;;;;;;;5.95;3.90;;;9.90;99.90;;;;;;5031867;28;20362;-72
2021/12/28 07:29:44;;;;;;;8.70;6.00;;;10.00;99.90;;;;;;5031219;28;20041;-72
2021/12/28 07:32:49;;;;;;;7.53;4.90;;;10.00;99.90;;;;;;5031756;28;20044;-72
2021/12/28 07:35:53;;;;;;;6.65;4.15;;;10.10;99.90;;;;;;5031696;28;20052;-72
2021/12/28 07:38:57;;;;;;;6.45;3.75;;;10.20;99.90;;;;;;5030862;28;20068;-72
2021/12/28 07:42:02;;;;;;;5.35;3.78;;;10.30;99.90;;;;;;5031591;28;20060;-72
2021/12/28 07:45:09;;;;;;;4.88;3.55;;;10.40;99.90;;;;;;5031632;28;20385;-73
2021/12/28 07:48:13;;;;;;;9.95;4.05;;;10.50;99.90;;;;;;5031102;28;20112;-73
2021/12/28 07:51:17;;;;;;;5.40;3.42;;;10.60;99.90;;;;;;5031189;28;20056;-72
2021/12/28 07:54:21;;;;;;;5.00;4.10;;;10.90;99.90;;;;;;5031072;28;20052;-72
2021/12/28 07:57:25;;;;;;;4.70;3.53;;;11.10;99.90;;;;;;5031057;28;20048;-72
2021/12/28 08:00:30;;;;;;;4.97;3.20;;;11.20;99.90;;;;;;5030579;28;20056;-72
2021/12/28 08:03:34;;;;;;;5.25;2.88;;;11.30;99.90;;;;;;5030818;28;20040;-72
2021/12/28 08:06:38;;;;;;;7.35;3.15;;;11.30;99.90;;;;;;5031057;28;20033;-72
2021/12/28 08:09:43;;;;;;;5.97;4.18;;;11.30;99.90;;;;;;5030102;28;20048;-72
2021/12/28 08:12:47;;;;;;;4.72;3.35;;;11.30;99.90;;;;;;5030720;28;20060;-73
2021/12/28 08:15:53;;;;;;;4.95;3.00;;;11.30;99.90;;;;;;5018477;28;20052;-72
2021/12/28 08:18:57;;;;;;;4.15;2.88;;;11.20;99.90;;;;;;5029782;28;20056;-73
2021/12/28 08:22:01;;;;;;;4.90;2.90;;;11.10;99.90;;;;;;5030567;28;20040;-72
2021/12/28 08:25:07;;;;;;;6.43;3.30;;;11.10;99.90;;;;;;5030421;28;20053;-72
2021/12/28 08:28:12;;;;;;;3.10;2.70;;;11.00;99.90;;;;;;5030112;28;20061;-72
2021/12/28 08:31:16;;;;;;;5.03;4.40;;;10.90;99.90;;;;;;5030301;28;20048;-72
2021/12/28 08:34:19;;;;;;;7.60;5.05;;;10.90;99.90;;;;;;5030330;28;20044;-72
2021/12/28 08:37:24;;;;;;;5.35;3.28;;;11.20;99.90;;;;;;5030398;28;20412;-73
2021/12/28 08:40:28;;;;;;;4.90;3.55;;;11.30;99.90;;;;;;5029958;28;20052;-73
2021/12/28 08:43:32;;;;;;;16.58;8.35;;;11.40;99.90;;;;;;5030356;28;20041;-73
2021/12/28 08:46:37;;;;;;;313.85;19.73;;;11.20;99.90;;;;;;5030050;28;20056;-72
2021/12/28 08:49:41;;;;;;;24.65;8.85;;;11.00;99.90;;;;;;5029942;28;20044;-73
2021/12/28 08:52:46;;;;;;;9.02;7.28;;;11.20;99.90;;;;;;5030228;28;20044;-73
2021/12/28 08:55:51;;;;;;;9.65;7.00;;;11.40;99.90;;;;;;5030010;28;20389;-73
2021/12/28 08:58:55;;;;;;;9.07;6.30;;;11.60;99.90;;;;;;5029836;28;20040;-73
2021/12/28 09:02:00;;;;;;;10.80;7.38;;;11.60;99.90;;;;;;5029850;28;20052;-73
2021/12/28 09:05:04;;;;;;;10.30;6.95;;;11.40;99.90;;;;;;5029954;28;20355;-73
2021/12/28 09:08:13;;;;;;;13.10;9.38;;;11.40;99.90;;;;;;5029639;28;20049;-73
2021/12/28 09:11:18;;;;;;;20.90;12.18;;;11.40;99.90;;;;;;5029718;28;20388;-73
2021/12/28 09:14:22;;;;;;;20.48;11.95;;;11.30;99.90;;;;;;5029948;28;20052;-73
2021/12/28 09:17:26;;;;;;;14.82;10.00;;;11.30;99.90;;;;;;5029721;28;20053;-73
2021/12/28 09:20:30;;;;;;;15.52;10.15;;;11.30;99.90;;;;;;5029683;28;20068;-73
2021/12/28 09:23:34;;;;;;;13.57;9.95;;;11.30;99.90;;;;;;5029234;28;20049;-73
2021/12/28 09:26:38;;;;;;;14.50;10.43;;;11.20;99.90;;;;;;5029909;28;20041;-73
2021/12/28 09:29:43;;;;;;;25.45;14.70;;;11.10;99.90;;;;;;5032214;28;20040;-73
2021/12/28 09:32:48;;;;;;;27.70;15.85;;;10.90;99.90;;;;;;5033939;28;20052;-72
2021/12/28 09:35:53;;;;;;;26.88;15.68;;;10.60;99.90;;;;;;5033517;28;20068;-73
2021/12/28 09:38:57;;;;;;;24.63;15.70;;;10.50;99.90;;;;;;5033401;28;20049;-73
2021/12/28 09:42:03;;;;;;;24.88;16.17;;;10.70;99.90;;;;;;5033864;28;20064;-73
2021/12/28 09:45:11;;;;;;;22.35;14.18;;;10.80;99.90;;;;;;5034069;28;20376;-73
2021/12/28 09:48:17;;;;;;;24.58;14.90;;;11.00;99.90;;;;;;5033448;28;20392;-72
2021/12/28 09:51:22;;;;;;;22.88;14.73;;;11.20;99.90;;;;;;5034095;28;20040;-72
2021/12/28 09:54:28;;;;;;;21.52;13.63;;;11.40;99.90;;;;;;5033337;28;20203;-73
2021/12/28 09:57:32;;;;;;;229.48;22.67;;;11.60;99.90;;;;;;5033578;28;20048;-73
2021/12/28 10:00:37;;;;;;;39.13;18.83;;;11.20;99.90;;;;;;5033161;28;20041;-73
2021/12/28 10:03:42;;;;;;;26.73;18.50;;;11.00;99.90;;;;;;5033527;28;20041;-73
2021/12/28 10:06:47;;;;;;;29.83;18.30;;;11.00;99.90;;;;;;5032495;28;20052;-73
2021/12/28 10:09:51;;;;;;;20.42;14.38;;;11.30;99.90;;;;;;5033357;28;20048;-73
2021/12/28 10:12:59;;;;;;;12.73;9.45;;;11.90;99.90;;;;;;5033610;28;20203;-73
2021/12/28 10:16:04;;;;;;;15.43;10.15;;;12.60;99.90;;;;;;5032797;28;20049;-74
2021/12/28 10:19:35;;;;;;;11.38;8.57;;;13.20;99.90;;;;;;5032636;28;20064;-73
2021/12/28 10:22:45;;;;;;;10.75;7.03;;;13.80;99.90;;;;;;5032535;28;20507;-73
2021/12/28 10:25:58;;;;;;;9.65;6.82;;;14.10;99.90;;;;;;5033404;28;20164;-73
2021/12/28 10:29:03;;;;;;;9.90;6.35;;;14.10;99.90;;;;;;5032061;28;20068;-74
2021/12/28 10:32:25;;;;;;;7.70;5.75;;;14.10;99.90;;;;;;5032245;28;20044;-74
2021/12/28 10:35:36;;;;;;;7.60;5.32;;;14.20;99.90;;;;;;5033280;28;20403;-73
2021/12/28 10:38:47;;;;;;;8.07;5.97;;;14.30;99.90;;;;;;5032452;28;20040;-73
2021/12/28 10:41:51;;;;;;;11.63;7.68;;;13.60;99.90;;;;;;5031803;28;20053;-74
2021/12/28 10:44:57;;;;;;;11.93;8.45;;;12.80;99.90;;;;;;5032991;28;20381;-73
2021/12/28 10:48:05;;;;;;;11.75;6.97;;;12.60;99.90;;;;;;5032551;28;20050;-72
2021/12/28 10:51:27;;;;;;;15.05;8.10;;;12.80;99.90;;;;;;5032595;28;20507;-73
2021/12/28 10:54:31;;;;;;;12.43;7.15;;;13.20;99.90;;;;;;5032324;28;20052;-73
2021/12/28 10:57:40;;;;;;;12.57;8.07;;;13.70;99.90;;;;;;5032396;28;20044;-74
2021/12/28 11:00:44;;;;;;;10.85;8.73;;;14.00;99.90;;;;;;5032265;28;20052;-73
2021/12/28 11:03:54;;;;;;;14.60;9.30;;;14.10;99.90;;;;;;5032291;28;20491;-73
2021/12/28 11:06:58;;;;;;;12.68;9.30;;;14.10;99.90;;;;;;5032205;28;20347;-72
2021/12/28 11:10:03;;;;;;;14.40;9.98;;;14.10;99.90;;;;;;5031845;28;20041;-73
2021/12/28 11:13:08;;;;;;;13.02;9.07;;;14.10;99.90;;;;;;5032056;28;20048;-73
2021/12/28 11:16:15;;;;;;;11.65;6.00;;;14.50;99.90;;;;;;5032278;28;20048;-73
2021/12/28 11:19:27;;;;;;;6.07;3.20;;;15.30;99.90;;;;;;5031740;28;20060;-73
2021/12/28 11:22:36;;;;;;;3.92;1.95;;;18.30;99.90;;;;;;5031001;28;20045;-73
2021/12/28 11:25:42;;;;;;;7.70;2.65;;;21.00;99.90;;;;;;5031153;28;20503;-74
2021/12/28 11:28:58;;;;;;;3.90;2.15;;;20.80;99.90;;;;;;5031557;28;20044;-73
2021/12/28 11:32:16;;;;;;;4.15;1.40;;;19.00;99.90;;;;;;5031507;28;20045;-74
2021/12/28 11:35:23;;;;;;;5.13;2.45;;;17.60;99.90;;;;;;5031608;28;20050;-73
2021/12/28 11:39:01;;;;;;;3.38;2.30;;;16.80;99.90;;;;;;5024086;28;20053;-73
2021/12/28 11:42:08;;;;;;;5.30;3.63;;;15.00;99.90;;;;;;5031746;28;20496;-73
2021/12/28 11:45:13;;;;;;;6.70;4.78;;;14.10;99.90;;;;;;5028630;28;20495;-73
2021/12/28 11:48:17;;;;;;;9.10;4.78;;;13.50;99.90;;;;;;5030800;28;20405;-73
2021/12/28 11:51:24;;;;;;;7.07;5.70;;;13.20;99.90;;;;;;5030440;28;20052;-72
2021/12/28 11:54:33;;;;;;;7.10;5.57;;;13.10;99.90;;;;;;5031568;28;20397;-73
2021/12/28 11:57:49;;;;;;;10.18;5.47;;;12.90;99.90;;;;;;5031178;28;20053;-73
2021/12/28 12:00:55;;;;;;;6.78;4.20;;;12.60;99.90;;;;;;5031067;28;20056;-73
2021/12/28 12:04:02;;;;;;;6.60;4.60;;;12.10;99.90;;;;;;5030995;28;20049;-73
2021/12/28 12:07:12;;;;;;;11.45;5.43;;;11.90;99.90;;;;;;5030983;28;20044;-73
2021/12/28 12:10:20;;;;;;;7.88;5.57;;;11.90;99.90;;;;;;5030718;28;20041;-73
2021/12/28 12:13:27;;;;;;;9.10;6.40;;;12.00;99.90;;;;;;5031060;28;20044;-73
2021/12/28 12:16:31;;;;;;;10.65;6.55;;;11.90;99.90;;;;;;5031174;28;20048;-73
2021/12/28 12:19:52;;;;;;;9.60;6.32;;;11.80;99.90;;;;;;5030457;28;20052;-73
2021/12/28 12:23:12;;;;;;;9.35;5.78;;;11.90;99.90;;;;;;5029993;28;20504;-73
2021/12/28 12:26:30;;;;;;;8.43;5.95;;;12.10;99.90;;;;;;5031055;28;20041;-73
2021/12/28 12:29:36;;;;;;;10.43;7.32;;;12.10;99.90;;;;;;5030414;28;20036;-73
2021/12/28 12:32:58;;;;;;;10.68;5.95;;;12.20;99.90;;;;;;5031154;28;20601;-73
2021/12/28 12:36:03;;;;;;;8.90;5.85;;;12.20;99.90;;;;;;5030858;28;20040;-73
2021/12/28 12:39:09;;;;;;;8.38;5.40;;;12.10;99.90;;;;;;5029925;28;20044;-73
2021/12/28 12:42:20;;;;;;;7.13;4.75;;;12.00;99.90;;;;;;5030638;28;20048;-73
2021/12/28 12:45:52;;;;;;;5.00;4.10;;;12.00;99.90;;;;;;5030865;28;20048;-72
2021/12/28 12:48:59;;;;;;;4.13;3.13;;;11.90;99.90;;;;;;5029973;28;20423;-73
2021/12/28 12:52:10;;;;;;;8.13;3.83;;;11.90;99.90;;;;;;5031045;28;20060;-72
2021/12/28 12:55:33;;;;;;;10.10;5.13;;;11.90;99.90;;;;;;5030615;28;20131;-73
2021/12/28 12:58:46;;;;;;;13.63;6.28;;;11.70;99.90;;;;;;5029544;28;20499;-73
2021/12/28 13:01:56;;;;;;;11.60;6.45;;;11.70;99.90;;;;;;5030553;28;20048;-73
2021/12/28 13:05:22;;;;;;;7.63;4.75;;;11.80;99.90;;;;;;5030101;28;20048;-73
2021/12/28 13:08:26;;;;;;;9.60;4.15;;;11.80;99.90;;;;;;5029629;28;20045;-73
2021/12/28 13:11:32;;;;;;;7.70;4.38;;;12.00;99.90;;;;;;5030047;28;20048;-74
2021/12/28 13:14:36;;;;;;;10.82;6.05;;;12.00;99.90;;;;;;5029753;28;20049;-74
2021/12/28 13:17:43;;;;;;;7.68;4.72;;;12.10;99.90;;;;;;5030093;28;20522;-73
2021/12/28 13:20:49;;;;;;;5.57;3.95;;;12.20;99.90;;;;;;5030057;28;20099;-73
2021/12/28 13:24:10;;;;;;;7.35;4.70;;;12.30;99.90;;;;;;5030329;28;20044;-73
2021/12/28 13:27:17;;;;;;;10.50;5.78;;;12.40;99.90;;;;;;5030263;28;20053;-74
2021/12/28 13:30:26;;;;;;;8.13;3.60;;;12.40;99.90;;;;;;5029466;28;20048;-74
2021/12/28 13:33:30;;;;;;;8.82;3.38;;;12.40;99.90;;;;;;5030191;28;20044;-73
2021/12/28 13:36:51;;;;;;;8.32;3.90;;;12.50;99.90;;;;;;5030188;28;20052;-74
2021/12/28 13:40:15;;;;;;;8.90;3.65;;;12.50;99.90;;;;;;5029513;28;20044;-73
2021/12/28 13:43:22;;;;;;;7.13;3.70;;;12.60;99.90;;;;;;5029419;28;20045;-74
2021/12/28 13:46:26;;;;;;;13.35;8.23;;;12.70;99.90;;;;;;5040761;28;20040;-74
2021/12/28 13:49:31;;;;;;;5.47;3.42;;;12.60;99.90;;;;;;5037657;28;20036;-74
2021/12/28 13:52:48;;;;;;;12.65;6.03;;;12.60;99.90;;;;;;5039460;28;20043;-73
2021/12/28 13:55:59;;;;;;;8.80;4.55;;;12.50;99.90;;;;;;5040021;28;20052;-74
2021/12/28 13:59:09;;;;;;;10.73;4.82;;;12.50;99.90;;;;;;5038478;28;20036;-74
2021/12/28 14:02:14;;;;;;;5.97;3.72;;;12.50;99.90;;;;;;5038852;28;20404;-74
2021/12/28 14:05:20;;;;;;;5.25;3.33;;;12.50;99.90;;;;;;5039041;28;20418;-73
2021/12/28 14:08:26;;;;;;;6.05;3.15;;;12.50;99.90;;;;;;5049130;28;20036;-74
2021/12/28 14:11:35;;;;;;;6.20;3.80;;;12.50;99.90;;;;;;5049050;28;20052;-74
2021/12/28 14:14:46;;;;;;;10.02;6.80;;;12.60;99.90;;;;;;5050651;28;20503;-74
2021/12/28 14:17:50;;;;;;;6.57;4.25;;;12.60;99.90;;;;;;5053771;28;20056;-74
2021/12/28 14:21:08;;;;;;;7.75;4.00;;;12.60;99.90;;;;;;5053603;28;20044;-73
2021/12/28 14:24:13;;;;;;;5.30;3.03;;;12.60;99.90;;;;;;5063335;28;20052;-74
2021/12/28 14:27:30;;;;;;;3.20;1.75;;;12.60;99.90;;;;;;5052096;28;20040;-74
2021/12/28 14:30:35;;;;;;;4.03;1.83;;;12.60;99.90;;;;;;5052614;28;20498;-73
2021/12/28 14:34:03;;;;;;;3.88;2.15;;;12.60;99.90;;;;;;5053208;28;20477;-73
2021/12/28 14:37:08;;;;;;;5.15;1.80;;;12.60;99.90;;;;;;5052778;28;20048;-73
2021/12/28 14:40:15;;;;;;;12.65;8.60;;;12.50;99.90;;;;;;5052401;28;20048;-73
2021/12/28 14:43:19;;;;;;;6.72;4.50;;;12.40;99.90;;;;;;5052925;28;20051;-73
2021/12/28 14:46:26;;;;;;;11.77;5.28;;;12.20;99.90;;;;;;5052320;28;20044;-74
2021/12/28 14:49:33;;;;;;;10.85;5.18;;;12.00;99.90;;;;;;5052271;28;20048;-73
2021/12/28 14:52:38;;;;;;;7.82;5.20;;;11.70;99.90;;;;;;5052401;28;20048;-73
2021/12/28 14:55:42;;;;;;;10.38;6.07;;;11.50;99.90;;;;;;5052534;28;20044;-73
2021/12/28 14:58:46;;;;;;;12.82;5.97;;;11.40;99.90;;;;;;5052153;28;20052;-74
2021/12/28 15:01:54;;;;;;;13.98;6.57;;;11.30;99.90;;;;;;5052210;28;20048;-73
2021/12/28 15:05:01;;;;;;;15.02;8.75;;;11.20;99.90;;;;;;5053031;28;20055;-73
2021/12/28 15:08:19;;;;;;;13.88;8.90;;;11.10;99.90;;;;;;5052940;28;20040;-73
2021/12/28 15:11:24;;;;;;;15.63;9.43;;;;;;;;;;5052312;28;20048;-73
2021/12/28 15:14:29;;;;;;;14.48;10.43;;;11.10;99.90;;;;;;5050410;28;20041;-73
2021/12/28 15:17:33;;;;;;;21.63;13.10;;;11.10;99.90;;;;;;5032246;28;20049;-73
2021/12/28 15:20:37;;;;;;;28.15;14.70;;;11.10;99.90;;;;;;5032213;28;20045;-73
2021/12/28 15:23:41;;;;;;;31.85;17.92;;;11.10;99.90;;;;;;5032231;28;20511;-74
2021/12/28 15:26:46;;;;;;;18.70;12.50;;;11.10;99.90;;;;;;5031786;28;20064;-73
2021/12/28 15:29:50;;;;;;;16.17;10.55;;;11.00;99.90;;;;;;5031883;28;20064;-73
2021/12/28 15:32:56;;;;;;;15.35;8.73;;;10.90;99.90;;;;;;5030786;28;20084;-73
2021/12/28 15:36:02;;;;;;;11.52;7.57;;;10.90;99.90;;;;;;5032755;28;20484;-73
2021/12/28 15:39:06;;;;;;;10.27;6.35;;;10.90;99.90;;;;;;5031361;28;20052;-73
2021/12/28 15:42:10;;;;;;;10.93;6.63;;;10.90;99.90;;;;;;5030599;28;20048;-73
2021/12/28 15:45:15;;;;;;;6.30;3.60;;;10.90;99.90;;;;;;5031886;28;20128;-73
2021/12/28 15:48:19;;;;;;;21.52;11.57;;;10.80;99.90;;;;;;5031150;28;20046;-73
2021/12/28 15:51:23;;;;;;;29.90;16.08;;;10.80;99.90;;;;;;5031935;28;20048;-73
2021/12/28 15:54:27;;;;;;;40.10;24.73;;;10.80;99.90;;;;;;5031566;28;20052;-73
2021/12/28 15:57:31;;;;;;;5.90;3.33;;;10.80;99.90;;;;;;5030463;28;20060;-74
2021/12/28 16:00:35;;;;;;;6.53;3.50;;;10.90;99.90;;;;;;5031061;28;20041;-74
2021/12/28 16:03:39;;;;;;;15.70;8.52;;;11.00;99.90;;;;;;5031425;28;20044;-74
2021/12/28 16:06:44;;;;;;;14.82;6.75;;;11.00;99.90;;;;;;5031205;28;20046;-74
2021/12/28 16:09:48;;;;;;;10.88;5.60;;;11.00;99.90;;;;;;5030768;28;20068;-73